createdAt,value
2018-02-16T00:01:52.131Z,80.60
2018-02-16T00:04:19.639Z,80.70
2018-02-16T00:06:47.208Z,80.80
2018-02-16T00:09:14.660Z,80.70
2018-02-16T00:11:42.125Z,80.60
2018-02-16T00:14:09.700Z,80.60
2018-02-16T00:16:37.160Z,80.60
2018-02-16T00:19:04.723Z,80.70
2018-02-16T00:21:32.204Z,80.60
2018-02-16T00:23:59.686Z,80.70
2018-02-16T00:26:27.136Z,80.80
2018-02-16T00:28:55.033Z,80.60
2018-02-16T00:31:23.061Z,80.60
2018-02-16T00:33:50.624Z,80.60
2018-02-16T00:36:18.442Z,80.60
2018-02-16T00:38:45.952Z,80.60
2018-02-16T00:41:13.476Z,80.60
2018-02-16T00:43:40.979Z,80.30
2018-02-16T00:46:08.494Z,80.30
2018-02-16T00:48:35.944Z,80.20
2018-02-16T00:51:03.473Z,80.20
2018-02-16T00:53:30.945Z,80.10
2018-02-16T00:55:58.804Z,80.60
2018-02-16T00:58:26.271Z,80.60
2018-02-16T01:00:54.132Z,80.60
2018-02-16T01:03:21.590Z,80.60
2018-02-16T01:05:49.141Z,80.50
2018-02-16T01:08:16.608Z,80.30
2018-02-16T01:10:44.087Z,80.20
2018-02-16T01:13:11.552Z,80.20
2018-02-16T01:15:38.994Z,80.20
2018-02-16T01:18:06.453Z,80.30
2018-02-16T01:20:33.926Z,80.20
2018-02-16T01:23:01.625Z,80.20
2018-02-16T01:25:29.494Z,80.30
2018-02-16T01:27:58.259Z,80.30
2018-02-16T01:30:25.807Z,80.30
2018-02-16T01:32:53.368Z,80.30
2018-02-16T01:35:20.852Z,80.10
2018-02-16T01:37:48.512Z,80.10
2018-02-16T01:40:15.968Z,80.20
2018-02-16T01:42:43.460Z,80.30
2018-02-16T01:45:12.330Z,80.50
2018-02-16T01:47:39.891Z,80.50
2018-02-16T01:50:07.440Z,80.60
2018-02-16T01:52:34.919Z,80.60
2018-02-16T01:55:02.380Z,80.60
2018-02-16T01:57:29.852Z,80.60
2018-02-16T01:59:57.314Z,80.50
2018-02-16T02:02:24.772Z,80.50
2018-02-16T02:04:52.316Z,80.60
2018-02-16T02:07:19.795Z,80.70
2018-02-16T02:09:47.347Z,80.70
2018-02-16T02:12:15.091Z,80.70
2018-02-16T02:14:42.571Z,80.60
2018-02-16T02:17:10.033Z,80.60
2018-02-16T02:19:37.479Z,80.50
2018-02-16T02:22:04.961Z,80.50
2018-02-16T02:24:32.413Z,80.50
2018-02-16T02:26:59.868Z,80.50
2018-02-16T02:29:27.363Z,80.40
2018-02-16T02:31:54.804Z,80.40
2018-02-16T02:34:22.257Z,80.50
2018-02-16T02:36:49.738Z,80.50
2018-02-16T02:39:17.296Z,80.50
2018-02-16T02:41:44.745Z,80.60
2018-02-16T02:44:12.222Z,80.60
2018-02-16T02:46:39.688Z,80.50
2018-02-16T02:49:07.144Z,80.50
2018-02-16T02:51:34.672Z,80.50
2018-02-16T02:54:02.163Z,80.60
2018-02-16T02:56:29.728Z,80.50
2018-02-16T02:58:57.180Z,80.60
2018-02-16T03:01:24.629Z,80.60
2018-02-16T03:03:52.084Z,80.60
2018-02-16T03:06:19.581Z,80.50
2018-02-16T03:08:47.651Z,80.40
2018-02-16T03:11:15.107Z,80.30
2018-02-16T03:13:42.576Z,80.30
2018-02-16T03:16:10.042Z,80.20
2018-02-16T03:18:37.490Z,80.20
2018-02-16T03:21:05.030Z,80.30
2018-02-16T03:23:32.516Z,80.20
2018-02-16T03:25:59.992Z,80.20
2018-02-16T03:28:27.556Z,80.20
2018-02-16T03:30:55.030Z,80.20
2018-02-16T03:33:23.465Z,80.10
2018-02-16T03:35:50.907Z,80.10
2018-02-16T03:38:18.761Z,80.00
2018-02-16T03:40:47.488Z,79.90
2018-02-16T03:43:14.938Z,79.90
2018-02-16T03:45:42.440Z,79.70
2018-02-16T03:48:09.896Z,79.60
2018-02-16T03:50:37.355Z,79.70
2018-02-16T03:53:04.808Z,79.70
2018-02-16T03:55:32.266Z,79.70
2018-02-16T03:57:59.754Z,79.90
2018-02-16T04:00:27.217Z,80.20
2018-02-16T04:02:54.693Z,80.10
2018-02-16T04:05:22.236Z,80.00
2018-02-16T04:07:49.697Z,79.90
2018-02-16T04:10:17.265Z,79.70
2018-02-16T04:12:44.725Z,79.50
2018-02-16T04:15:12.175Z,79.50
2018-02-16T04:17:39.648Z,79.50
2018-02-16T04:20:07.096Z,79.50
2018-02-16T04:22:34.576Z,79.50
2018-02-16T04:25:02.028Z,79.60
2018-02-16T04:27:29.480Z,79.60
2018-02-16T04:29:56.932Z,79.60
2018-02-16T04:32:24.382Z,79.60
2018-02-16T04:34:51.879Z,79.60
2018-02-16T04:37:19.353Z,79.60
2018-02-16T04:39:46.804Z,79.50
2018-02-16T04:42:14.249Z,79.30
2018-02-16T04:44:41.708Z,79.20
2018-02-16T04:47:09.164Z,79.10
2018-02-16T04:49:36.620Z,79.00
2018-02-16T04:52:04.080Z,79.00
2018-02-16T04:54:31.575Z,78.80
2018-02-16T04:56:59.020Z,78.80
2018-02-16T04:59:26.499Z,78.70
2018-02-16T05:01:53.952Z,78.70
2018-02-16T05:04:21.401Z,78.90
2018-02-16T05:06:48.888Z,78.70
2018-02-16T05:09:16.348Z,78.60
2018-02-16T05:11:43.803Z,78.50
2018-02-16T05:14:11.248Z,78.50
2018-02-16T05:16:38.731Z,78.50
2018-02-16T05:19:06.185Z,78.30
2018-02-16T05:21:33.725Z,78.30
2018-02-16T05:24:01.168Z,78.30
2018-02-16T05:26:28.615Z,78.20
2018-02-16T05:28:56.484Z,78.30
2018-02-16T05:31:23.936Z,78.30
2018-02-16T05:33:51.388Z,78.30
2018-02-16T05:36:18.831Z,78.10
2018-02-16T05:38:46.287Z,78.20
2018-02-16T05:41:13.750Z,78.40
2018-02-16T05:43:41.221Z,78.60
2018-02-16T05:46:08.675Z,78.90
2018-02-16T05:48:36.121Z,78.90
2018-02-16T05:51:03.580Z,79.10
2018-02-16T05:53:31.052Z,79.20
2018-02-16T05:55:58.541Z,79.30
2018-02-16T05:58:25.993Z,79.40
2018-02-16T06:00:53.451Z,79.40
2018-02-16T06:03:20.904Z,79.60
2018-02-16T06:05:48.357Z,79.70
2018-02-16T06:08:15.808Z,80.00
2018-02-16T06:10:43.519Z,80.10
2018-02-16T06:13:10.976Z,80.00
2018-02-16T06:15:38.434Z,80.10
2018-02-16T06:18:05.881Z,80.20
2018-02-16T06:20:33.339Z,80.20
2018-02-16T06:23:00.797Z,80.00
2018-02-16T06:25:28.342Z,79.80
2018-02-16T06:27:55.780Z,79.80
2018-02-16T06:30:23.712Z,80.00
2018-02-16T06:32:51.294Z,80.00
2018-02-16T06:35:18.755Z,80.00
2018-02-16T06:37:46.212Z,80.20
2018-02-16T06:40:13.756Z,80.30
2018-02-16T06:42:41.226Z,80.50
2018-02-16T06:45:08.789Z,80.50
2018-02-16T06:47:36.358Z,80.50
2018-02-16T06:50:04.433Z,80.50
2018-02-16T06:52:31.882Z,80.60
2018-02-16T06:54:59.336Z,80.60
2018-02-16T06:57:26.811Z,80.60
2018-02-16T06:59:54.341Z,80.80
2018-02-16T07:02:21.783Z,80.80
2018-02-16T07:04:49.640Z,81.20
2018-02-16T07:07:17.484Z,81.60
2018-02-16T07:09:45.050Z,81.50
2018-02-16T07:12:12.517Z,81.50
2018-02-16T07:14:39.976Z,81.40
2018-02-16T07:17:07.540Z,81.40
2018-02-16T07:19:35.058Z,81.20
2018-02-16T07:22:02.508Z,81.30
2018-02-16T07:24:29.973Z,81.50
2018-02-16T07:26:57.420Z,81.40
2018-02-16T07:29:25.313Z,81.20
2018-02-16T07:31:52.810Z,81.20
2018-02-16T07:34:20.264Z,81.00
2018-02-16T07:36:47.737Z,80.60
2018-02-16T07:39:15.298Z,80.70
2018-02-16T07:41:42.740Z,80.60
2018-02-16T07:44:10.228Z,80.20
2018-02-16T07:46:37.686Z,80.20
2018-02-16T07:49:05.143Z,80.00
2018-02-16T07:51:32.608Z,80.10
2018-02-16T07:54:00.065Z,80.10
2018-02-16T07:56:27.532Z,80.20
2018-02-16T07:58:54.999Z,80.20
2018-02-16T08:01:22.555Z,80.40
2018-02-16T08:03:50.126Z,80.20
2018-02-16T08:06:17.572Z,80.10
2018-02-16T08:08:45.049Z,80.20
2018-02-16T08:11:12.572Z,80.20
2018-02-16T08:13:40.076Z,80.00
2018-02-16T08:16:07.628Z,80.00
2018-02-16T08:18:35.190Z,80.20
2018-02-16T08:21:02.665Z,80.20
2018-02-16T08:23:30.124Z,80.30
2018-02-16T08:25:57.802Z,80.20
2018-02-16T08:28:25.245Z,80.30
2018-02-16T08:30:52.716Z,80.40
2018-02-16T08:33:20.239Z,80.10
2018-02-16T08:35:47.749Z,79.90
2018-02-16T08:38:15.181Z,80.10
2018-02-16T08:40:42.644Z,80.10
2018-02-16T08:43:10.498Z,80.20
2018-02-16T08:45:37.948Z,80.20
2018-02-16T08:48:05.474Z,80.20
2018-02-16T08:50:33.021Z,80.00
2018-02-16T08:53:00.587Z,79.90
2018-02-16T08:55:28.056Z,79.70
2018-02-16T08:57:55.805Z,79.70
2018-02-16T09:00:23.269Z,79.60
2018-02-16T09:02:50.730Z,79.60
2018-02-16T09:05:18.196Z,79.60
2018-02-16T09:07:45.681Z,79.20
2018-02-16T09:10:13.221Z,79.00
2018-02-16T09:12:40.672Z,79.00
2018-02-16T09:15:08.147Z,79.10
2018-02-16T09:17:35.677Z,79.10
2018-02-16T09:20:03.136Z,79.20
2018-02-16T09:22:30.624Z,79.10
2018-02-16T09:24:58.907Z,79.10
2018-02-16T09:27:26.372Z,79.00
2018-02-16T09:29:53.965Z,78.70
2018-02-16T09:32:21.404Z,78.40
2018-02-16T09:34:48.856Z,78.30
2018-02-16T09:37:17.185Z,78.20
2018-02-16T09:39:46.219Z,78.40
2018-02-16T09:42:13.699Z,78.40
2018-02-16T09:44:41.188Z,78.40
2018-02-16T09:47:08.684Z,78.10
2018-02-16T09:49:36.213Z,78.10
2018-02-16T09:52:05.132Z,77.60
2018-02-16T09:54:33.049Z,77.30
2018-02-16T09:57:00.933Z,76.60
2018-02-16T09:59:28.397Z,76.60
2018-02-16T10:01:55.845Z,76.00
2018-02-16T10:04:23.337Z,75.40
2018-02-16T10:06:50.796Z,75.00
2018-02-16T10:09:18.256Z,74.50
2018-02-16T10:11:45.799Z,73.50
2018-02-16T10:14:14.633Z,73.80
2018-02-16T10:16:42.484Z,71.50
2018-02-16T10:19:10.024Z,71.50
2018-02-16T10:21:37.479Z,71.40
2018-02-16T10:24:05.060Z,71.90
2018-02-16T10:26:32.485Z,69.80
2018-02-16T10:28:59.965Z,69.10
2018-02-16T10:31:27.443Z,68.60
2018-02-16T10:33:54.901Z,69.40
2018-02-16T10:36:22.472Z,69.30
2018-02-16T10:38:49.941Z,68.90
2018-02-16T10:41:17.400Z,68.40
2018-02-16T10:43:44.924Z,68.30
2018-02-16T10:46:12.359Z,68.20
2018-02-16T10:48:40.256Z,68.10
2018-02-16T10:51:07.865Z,68.10
2018-02-16T10:53:35.319Z,68.20
2018-02-16T10:56:03.185Z,68.70
2018-02-16T10:58:30.658Z,69.40
2018-02-16T11:01:03.724Z,69.90
2018-02-16T11:03:36.900Z,70.20
2018-02-16T11:06:04.923Z,70.10
2018-02-16T11:08:38.172Z,70.40
2018-02-16T11:11:05.960Z,71.20
2018-02-16T11:13:33.420Z,68.70
2018-02-16T11:16:00.865Z,67.60
2018-02-16T11:18:28.343Z,68.10
2018-02-16T11:20:55.769Z,69.70
2018-02-16T11:23:23.221Z,70.20
2018-02-16T11:25:51.066Z,69.90
2018-02-16T11:28:18.512Z,69.90
2018-02-16T11:30:45.990Z,68.90
2018-02-16T11:33:13.536Z,67.90
2018-02-16T11:35:41.005Z,68.60
2018-02-16T11:38:08.480Z,68.90
2018-02-16T11:40:35.922Z,68.30
2018-02-16T11:43:03.884Z,67.70
2018-02-16T11:45:31.355Z,67.90
2018-02-16T11:47:58.812Z,68.50
2018-02-16T11:50:26.272Z,68.40
2018-02-16T11:52:53.737Z,67.20
2018-02-16T11:55:21.190Z,67.00
2018-02-16T11:57:48.672Z,67.50
2018-02-16T12:00:16.178Z,68.30
2018-02-16T12:02:44.104Z,65.70
2018-02-16T12:05:11.563Z,65.70
2018-02-16T12:07:39.059Z,66.30
2018-02-16T12:10:06.553Z,65.00
2018-02-16T12:12:34.052Z,65.30
2018-02-16T12:15:01.613Z,64.30
2018-02-16T12:17:29.127Z,63.30
2018-02-16T12:19:57.017Z,63.60
2018-02-16T12:22:24.516Z,63.60
2018-02-16T12:24:51.968Z,63.40
2018-02-16T12:27:19.416Z,63.20
2018-02-16T12:29:46.908Z,63.30
2018-02-16T12:32:14.366Z,62.90
2018-02-16T12:34:41.814Z,62.90
2018-02-16T12:37:09.272Z,62.10
2018-02-16T12:39:36.755Z,61.50
2018-02-16T12:42:04.313Z,62.10
2018-02-16T12:44:31.760Z,61.80
2018-02-16T12:46:59.220Z,62.60
2018-02-16T12:49:26.663Z,61.10
2018-02-16T12:51:54.117Z,60.80
2018-02-16T12:54:21.575Z,59.30
2018-02-16T12:56:49.025Z,59.40
2018-02-16T12:59:16.961Z,59.30
2018-02-16T13:01:45.483Z,59.30
2018-02-16T13:04:12.969Z,59.50
2018-02-16T13:06:40.485Z,57.20
2018-02-16T13:09:07.957Z,57.80
2018-02-16T13:11:35.830Z,56.40
2018-02-16T13:14:03.351Z,56.40
2018-02-16T13:16:30.974Z,57.80
2018-02-16T13:18:58.852Z,57.30
2018-02-16T13:21:26.713Z,56.70
2018-02-16T13:23:54.653Z,57.20
2018-02-16T13:26:22.225Z,57.30
2018-02-16T13:28:49.784Z,57.50
2018-02-16T13:31:17.273Z,57.40
2018-02-16T13:33:45.221Z,56.90
2018-02-16T13:36:12.729Z,56.90
2018-02-16T13:38:40.586Z,55.70
2018-02-16T13:41:08.452Z,55.60
2018-02-16T13:43:36.357Z,56.20
2018-02-16T13:46:03.876Z,56.20
2018-02-16T13:48:31.760Z,57.70
2018-02-16T13:50:59.612Z,57.60
2018-02-16T13:53:27.381Z,57.60
2018-02-16T13:55:54.995Z,55.20
2018-02-16T13:58:22.460Z,56.50
2018-02-16T14:00:49.892Z,56.90
2018-02-16T14:03:17.745Z,54.50
2018-02-16T14:05:45.286Z,54.50
2018-02-16T14:08:12.861Z,53.40
2018-02-16T14:10:40.301Z,54.00
2018-02-16T14:13:07.787Z,54.70
2018-02-16T14:15:35.353Z,54.90
2018-02-16T14:18:02.809Z,55.30
2018-02-16T14:20:30.269Z,55.60
2018-02-16T14:22:57.736Z,54.50
2018-02-16T14:25:25.180Z,54.10
2018-02-16T14:27:52.773Z,55.00
2018-02-16T14:30:20.623Z,55.10
2018-02-16T14:32:48.085Z,55.10
2018-02-16T14:35:15.660Z,54.60
2018-02-16T14:37:43.148Z,54.60
2018-02-16T14:40:10.998Z,54.00
2018-02-16T14:42:38.550Z,53.90
2018-02-16T14:45:06.026Z,54.70
2018-02-16T14:47:33.573Z,54.70
2018-02-16T14:50:01.049Z,53.70
2018-02-16T14:52:28.624Z,53.80
2018-02-16T14:54:56.540Z,53.40
2018-02-16T14:57:24.021Z,53.40
2018-02-16T14:59:51.494Z,52.50
2018-02-16T15:02:18.977Z,53.50
2018-02-16T15:04:46.517Z,52.20
2018-02-16T15:07:13.996Z,52.10
2018-02-16T15:09:41.456Z,52.50
2018-02-16T15:12:08.949Z,51.60
2018-02-16T15:14:36.392Z,51.10
2018-02-16T15:17:04.865Z,51.50
2018-02-16T15:19:32.417Z,52.00
2018-02-16T15:21:59.897Z,51.90
2018-02-16T15:24:27.381Z,51.00
2018-02-16T15:26:55.228Z,50.60
2018-02-16T15:29:22.732Z,50.60
2018-02-16T15:31:50.195Z,51.80
2018-02-16T15:34:17.652Z,51.60
2018-02-16T15:36:45.132Z,51.70
2018-02-16T15:39:12.598Z,50.60
2018-02-16T15:41:40.049Z,51.20
2018-02-16T15:44:07.964Z,52.10
2018-02-16T15:49:26.436Z,52.20
2018-02-16T15:51:53.888Z,53.20
2018-02-16T15:54:21.404Z,53.10
2018-02-16T15:56:48.900Z,53.60
2018-02-16T15:59:16.524Z,53.50
2018-02-16T16:01:44.095Z,52.30
2018-02-16T16:04:11.761Z,53.20
2018-02-16T16:06:39.326Z,53.00
2018-02-16T16:09:06.989Z,53.60
2018-02-16T16:11:34.464Z,54.00
2018-02-16T16:14:01.984Z,53.50
2018-02-16T16:16:29.493Z,55.10
2018-02-16T16:18:56.992Z,55.50
2018-02-16T16:21:24.487Z,55.90
2018-02-16T16:23:52.451Z,56.60
2018-02-16T16:26:20.035Z,56.60
2018-02-16T16:28:47.513Z,56.90
2018-02-16T16:31:15.040Z,57.40
2018-02-16T16:33:42.908Z,58.20
2018-02-16T16:36:10.513Z,58.20
2018-02-16T16:38:37.984Z,58.70
2018-02-16T16:41:05.511Z,59.60
2018-02-16T16:43:33.396Z,59.90
2018-02-16T16:46:01.606Z,59.90
2018-02-16T16:51:20.453Z,60.90
2018-02-16T16:53:47.982Z,61.30
2018-02-16T16:56:15.465Z,61.60
2018-02-16T16:58:43.421Z,61.70
2018-02-16T17:01:10.917Z,61.80
2018-02-16T17:03:38.388Z,62.30
2018-02-16T17:06:05.929Z,62.80
2018-02-16T17:08:33.411Z,62.90
2018-02-16T17:11:00.897Z,63.10
2018-02-16T17:13:28.391Z,63.80
2018-02-16T17:15:56.282Z,64.10
2018-02-16T17:18:23.785Z,64.00
2018-02-16T17:20:51.272Z,64.70
2018-02-16T17:23:18.836Z,64.70
2018-02-16T17:25:46.345Z,65.10
2018-02-16T17:28:13.841Z,65.40
2018-02-16T17:30:41.315Z,65.60
2018-02-16T17:33:08.811Z,65.70
2018-02-16T17:35:36.698Z,66.20
2018-02-16T17:38:04.632Z,66.30
2018-02-16T17:40:32.114Z,66.30
2018-02-16T17:43:00.079Z,66.40
2018-02-16T17:45:27.645Z,66.40
2018-02-16T17:47:55.857Z,66.80
2018-02-16T17:50:23.522Z,66.80
2018-02-16T17:52:51.042Z,66.90
2018-02-16T17:55:19.006Z,67.00
2018-02-16T17:57:46.711Z,67.00
2018-02-16T18:00:14.187Z,67.40
2018-02-16T18:02:41.636Z,67.10
2018-02-16T18:05:09.158Z,67.50
2018-02-16T18:07:36.624Z,67.30
2018-02-16T18:10:04.080Z,67.80
2018-02-16T18:12:31.567Z,68.20
2018-02-16T18:14:59.432Z,68.10
2018-02-16T18:17:26.967Z,68.10
2018-02-16T18:19:54.782Z,68.50
2018-02-16T18:22:22.642Z,68.30
2018-02-16T18:24:50.497Z,68.80
2018-02-16T18:27:17.964Z,68.80
2018-02-16T18:29:45.879Z,69.00
2018-02-16T18:32:13.337Z,68.90
2018-02-16T18:34:40.794Z,69.10
2018-02-16T18:37:08.277Z,69.70
2018-02-16T18:39:35.737Z,69.80
2018-02-16T18:42:03.201Z,70.40
2018-02-16T18:44:30.663Z,70.20
2018-02-16T18:46:58.114Z,70.50
2018-02-16T18:49:25.593Z,70.00
2018-02-16T18:51:53.037Z,69.50
2018-02-16T18:54:20.608Z,69.40
2018-02-16T18:56:48.183Z,69.50
2018-02-16T18:59:15.680Z,69.70
2018-02-16T19:01:43.129Z,69.80
2018-02-16T19:04:10.574Z,70.00
2018-02-16T19:06:38.485Z,70.20
2018-02-16T19:09:05.940Z,70.70
2018-02-16T19:11:33.441Z,70.90
2018-02-16T19:14:00.910Z,71.00
2018-02-16T19:16:28.441Z,71.40
2018-02-16T19:18:55.988Z,71.50
2018-02-16T19:21:23.962Z,71.20
2018-02-16T19:23:51.537Z,71.20
2018-02-16T19:26:19.001Z,71.10
2018-02-16T19:28:46.503Z,71.00
2018-02-16T19:31:14.043Z,71.20
2018-02-16T19:33:42.541Z,71.10
2018-02-16T19:36:10.064Z,71.10
2018-02-16T19:38:37.600Z,71.40
2018-02-16T19:41:05.105Z,71.60
2018-02-16T19:43:32.644Z,71.70
2018-02-16T19:46:00.136Z,71.90
2018-02-16T19:51:18.404Z,72.20
2018-02-16T19:53:45.861Z,72.30
2018-02-16T19:56:13.714Z,72.60
2018-02-16T19:58:41.252Z,72.60
2018-02-16T20:01:08.724Z,72.60
2018-02-16T20:03:36.310Z,72.50
2018-02-16T20:06:03.852Z,72.60
2018-02-16T20:08:31.320Z,72.70
2018-02-16T20:10:59.185Z,72.80
2018-02-16T20:13:26.746Z,72.80
2018-02-16T20:15:54.262Z,73.00
2018-02-16T20:18:21.730Z,73.10
2018-02-16T20:20:49.184Z,73.40
2018-02-16T20:23:16.661Z,73.30
2018-02-16T20:25:44.169Z,73.70
2018-02-16T20:28:11.674Z,74.10
2018-02-16T20:30:39.180Z,74.00
2018-02-16T20:33:06.620Z,73.90
2018-02-16T20:35:34.082Z,73.80
2018-02-16T20:38:01.541Z,74.20
2018-02-16T20:40:29.189Z,74.30
2018-02-16T20:42:56.656Z,74.20
2018-02-16T20:45:24.157Z,73.90
2018-02-16T20:47:51.608Z,73.80
2018-02-16T20:50:19.065Z,73.90
2018-02-16T20:52:46.559Z,73.90
2018-02-16T20:55:14.002Z,73.90
2018-02-16T20:57:41.466Z,74.00
2018-02-16T21:00:08.928Z,74.20
2018-02-16T21:02:36.387Z,74.30
2018-02-16T21:05:03.888Z,74.10
2018-02-16T21:07:31.829Z,74.00
2018-02-16T21:12:50.730Z,74.20
2018-02-16T21:15:18.193Z,74.20
2018-02-16T21:17:46.060Z,74.40
2018-02-16T21:20:13.935Z,74.40
2018-02-16T21:22:41.846Z,74.30
2018-02-16T21:25:09.332Z,74.30
2018-02-16T21:27:36.851Z,74.30
2018-02-16T21:30:04.351Z,74.20
2018-02-16T21:32:31.800Z,74.40
2018-02-16T21:34:59.303Z,74.50
2018-02-16T21:37:27.029Z,74.80
2018-02-16T21:39:54.500Z,74.60
2018-02-16T21:42:21.969Z,74.60
2018-02-16T21:44:49.493Z,74.50
2018-02-16T21:47:16.979Z,74.70
2018-02-16T21:49:45.181Z,75.00
2018-02-16T21:52:12.661Z,75.30
2018-02-16T21:54:40.617Z,75.30
2018-02-16T21:57:08.173Z,75.30
2018-02-16T21:59:35.735Z,75.50
2018-02-16T22:02:03.224Z,75.60
2018-02-16T22:04:31.103Z,75.50
2018-02-16T22:06:59.064Z,75.40
2018-02-16T22:09:27.054Z,75.90
2018-02-16T22:11:54.919Z,75.80
2018-02-16T22:14:22.784Z,75.70
2018-02-16T22:16:50.656Z,75.60
2018-02-16T22:19:18.561Z,75.80
2018-02-16T22:21:46.492Z,75.90
2018-02-16T22:24:14.056Z,75.90
2018-02-16T22:26:41.551Z,75.90
2018-02-16T22:29:09.078Z,75.90
2018-02-16T22:31:36.528Z,76.10
2018-02-16T22:34:04.090Z,76.00
2018-02-16T22:36:31.570Z,75.90
2018-02-16T22:38:59.104Z,76.00
2018-02-16T22:41:26.576Z,76.20
2018-02-16T22:43:54.140Z,75.90
2018-02-16T22:46:21.621Z,75.90
2018-02-16T22:48:49.573Z,75.80
2018-02-16T22:51:17.356Z,75.80
2018-02-16T22:53:44.808Z,76.00
2018-02-16T22:56:12.288Z,76.10
2018-02-16T22:58:40.257Z,76.20
2018-02-16T23:01:07.718Z,76.20
2018-02-16T23:03:35.633Z,76.20
2018-02-16T23:06:03.510Z,76.40
2018-02-16T23:08:31.375Z,76.50
2018-02-16T23:10:58.813Z,76.30
2018-02-16T23:13:27.128Z,76.00
2018-02-16T23:15:54.719Z,76.00
2018-02-16T23:18:22.179Z,76.10
2018-02-16T23:20:49.672Z,76.10
2018-02-16T23:23:17.131Z,76.30
2018-02-16T23:25:45.168Z,76.20
2018-02-16T23:28:12.770Z,76.20
2018-02-16T23:30:40.320Z,76.10
2018-02-16T23:33:08.621Z,76.00
2018-02-16T23:35:36.162Z,76.10
2018-02-16T23:38:03.639Z,76.20
2018-02-16T23:40:31.506Z,76.00
2018-02-16T23:42:59.050Z,76.00
2018-02-16T23:45:26.631Z,75.90
2018-02-16T23:47:54.120Z,76.00
2018-02-16T23:50:21.598Z,76.20
2018-02-16T23:52:49.257Z,76.50
2018-02-16T23:55:16.833Z,76.60
2018-02-16T23:57:44.435Z,76.50
